sensor_id;sensor_type;location;lat;lon;timestamp;temperature;humidity
7814;DHT22;3952;48.364;16.022;2023-06-05T00:02:20;16.40;99.90
7814;DHT22;3952;48.364;16.022;2023-06-05T00:04:48;16.40;99.90
7814;DHT22;3952;48.364;16.022;2023-06-05T00:07:15;16.30;99.90
7814;DHT22;3952;48.364;16.022;2023-06-05T00:09:42;16.20;99.90
7814;DHT22;3952;48.364;16.022;2023-06-05T00:12:10;16.20;99.90
7814;DHT22;3952;48.364;16.022;2023-06-05T00:14:37;16.20;99.90
7814;DHT22;3952;48.364;16.022;2023-06-05T00:17:04;16.20;99.90
7814;DHT22;3952;48.364;16.022;2023-06-05T00:19:36;16.20;99.90
7814;DHT22;3952;48.364;16.022;2023-06-05T00:22:03;16.20;99.90
7814;DHT22;3952;48.364;16.022;2023-06-05T00:24:31;16.20;99.90
7814;DHT22;3952;48.364;16.022;2023-06-05T00:26:58;16.10;99.90
7814;DHT22;3952;48.364;16.022;2023-06-05T00:29:25;16.10;99.90
7814;DHT22;3952;48.364;16.022;2023-06-05T00:31:53;16.10;99.90
7814;DHT22;3952;48.364;16.022;2023-06-05T00:34:20;16.10;99.90
7814;DHT22;3952;48.364;16.022;2023-06-05T00:36:49;16.10;99.90
7814;DHT22;3952;48.364;16.022;2023-06-05T00:39:16;16.10;99.90
7814;DHT22;3952;48.364;16.022;2023-06-05T00:41:44;16.00;99.90
7814;DHT22;3952;48.364;16.022;2023-06-05T00:44:12;16.00;99.90
7814;DHT22;3952;48.364;16.022;2023-06-05T00:46:39;16.00;99.90
7814;DHT22;3952;48.364;16.022;2023-06-05T00:49:07;16.00;99.90
7814;DHT22;3952;48.364;16.022;2023-06-05T00:51:35;16.00;99.90
7814;DHT22;3952;48.364;16.022;2023-06-05T00:54:05;16.00;99.90
7814;DHT22;3952;48.364;16.022;2023-06-05T00:56:33;16.00;99.90
7814;DHT22;3952;48.364;16.022;2023-06-05T00:59:03;16.00;99.90
7814;DHT22;3952;48.364;16.022;2023-06-05T01:01:31;16.00;99.90
7814;DHT22;3952;48.364;16.022;2023-06-05T01:04:00;16.00;99.90
7814;DHT22;3952;48.364;16.022;2023-06-05T01:06:28;16.00;99.90
7814;DHT22;3952;48.364;16.022;2023-06-05T01:08:57;16.00;99.90
7814;DHT22;3952;48.364;16.022;2023-06-05T01:11:34;16.00;99.90
7814;DHT22;3952;48.364;16.022;2023-06-05T01:14:11;16.00;99.90
7814;DHT22;3952;48.364;16.022;2023-06-05T01:16:42;16.00;99.90
7814;DHT22;3952;48.364;16.022;2023-06-05T01:19:14;16.00;99.90
7814;DHT22;3952;48.364;16.022;2023-06-05T01:21:42;16.10;99.90
7814;DHT22;3952;48.364;16.022;2023-06-05T01:24:11;16.10;99.90
7814;DHT22;3952;48.364;16.022;2023-06-05T01:26:48;16.10;99.90
7814;DHT22;3952;48.364;16.022;2023-06-05T01:29:25;16.10;99.90
7814;DHT22;3952;48.364;16.022;2023-06-05T01:31:58;16.10;99.90
7814;DHT22;3952;48.364;16.022;2023-06-05T01:34:32;16.10;99.90
7814;DHT22;3952;48.364;16.022;2023-06-05T01:37:02;16.10;99.90
7814;DHT22;3952;48.364;16.022;2023-06-05T01:39:36;16.10;99.90
7814;DHT22;3952;48.364;16.022;2023-06-05T01:42:05;16.10;99.90
7814;DHT22;3952;48.364;16.022;2023-06-05T01:44:33;16.10;99.90
7814;DHT22;3952;48.364;16.022;2023-06-05T01:47:01;16.10;99.90
7814;DHT22;3952;48.364;16.022;2023-06-05T01:49:28;16.10;99.90
7814;DHT22;3952;48.364;16.022;2023-06-05T01:51:56;16.10;99.90
7814;DHT22;3952;48.364;16.022;2023-06-05T01:54:23;16.10;99.90
7814;DHT22;3952;48.364;16.022;2023-06-05T01:56:53;16.10;99.90
7814;DHT22;3952;48.364;16.022;2023-06-05T01:59:21;16.20;99.90
7814;DHT22;3952;48.364;16.022;2023-06-05T02:01:48;16.20;99.90
7814;DHT22;3952;48.364;16.022;2023-06-05T02:04:15;16.10;99.90
7814;DHT22;3952;48.364;16.022;2023-06-05T02:06:45;16.10;99.90
7814;DHT22;3952;48.364;16.022;2023-06-05T02:09:12;16.10;99.90
7814;DHT22;3952;48.364;16.022;2023-06-05T02:11:40;16.10;99.90
7814;DHT22;3952;48.364;16.022;2023-06-05T02:14:12;16.10;99.90
7814;DHT22;3952;48.364;16.022;2023-06-05T02:16:41;16.20;99.90
7814;DHT22;3952;48.364;16.022;2023-06-05T02:19:09;16.10;99.90
7814;DHT22;3952;48.364;16.022;2023-06-05T02:21:36;16.10;99.90
7814;DHT22;3952;48.364;16.022;2023-06-05T02:24:04;16.10;99.90
7814;DHT22;3952;48.364;16.022;2023-06-05T02:26:32;16.10;99.90
7814;DHT22;3952;48.364;16.022;2023-06-05T02:29:00;16.20;99.90
7814;DHT22;3952;48.364;16.022;2023-06-05T02:31:29;16.20;99.90
7814;DHT22;3952;48.364;16.022;2023-06-05T02:33:56;16.20;99.90
7814;DHT22;3952;48.364;16.022;2023-06-05T02:36:24;16.20;99.90
7814;DHT22;3952;48.364;16.022;2023-06-05T02:38:52;16.20;99.90
7814;DHT22;3952;48.364;16.022;2023-06-05T02:41:20;16.20;99.90
7814;DHT22;3952;48.364;16.022;2023-06-05T02:43:48;16.20;99.90
7814;DHT22;3952;48.364;16.022;2023-06-05T02:46:15;16.20;99.90
7814;DHT22;3952;48.364;16.022;2023-06-05T02:48:44;16.30;99.90
7814;DHT22;3952;48.364;16.022;2023-06-05T02:51:11;16.20;99.90
7814;DHT22;3952;48.364;16.022;2023-06-05T02:53:39;16.20;99.90
7814;DHT22;3952;48.364;16.022;2023-06-05T02:56:06;16.20;99.90
7814;DHT22;3952;48.364;16.022;2023-06-05T02:58:33;16.20;99.90
7814;DHT22;3952;48.364;16.022;2023-06-05T03:01:01;16.20;99.90
7814;DHT22;3952;48.364;16.022;2023-06-05T03:03:30;16.10;99.90
7814;DHT22;3952;48.364;16.022;2023-06-05T03:06:00;16.20;99.90
7814;DHT22;3952;48.364;16.022;2023-06-05T03:08:30;16.10;99.90
7814;DHT22;3952;48.364;16.022;2023-06-05T03:11:01;16.10;99.90
7814;DHT22;3952;48.364;16.022;2023-06-05T03:13:29;16.10;99.90
7814;DHT22;3952;48.364;16.022;2023-06-05T03:15:58;16.10;99.90
7814;DHT22;3952;48.364;16.022;2023-06-05T03:18:27;16.10;99.90
7814;DHT22;3952;48.364;16.022;2023-06-05T03:20:55;16.10;99.90
7814;DHT22;3952;48.364;16.022;2023-06-05T03:23:24;16.00;99.90
7814;DHT22;3952;48.364;16.022;2023-06-05T03:25:53;16.00;99.90
7814;DHT22;3952;48.364;16.022;2023-06-05T03:28:21;16.00;99.90
7814;DHT22;3952;48.364;16.022;2023-06-05T03:30:49;16.00;99.90
7814;DHT22;3952;48.364;16.022;2023-06-05T03:33:16;16.00;99.90
7814;DHT22;3952;48.364;16.022;2023-06-05T03:35:44;16.00;99.90
7814;DHT22;3952;48.364;16.022;2023-06-05T03:38:12;16.10;99.90
7814;DHT22;3952;48.364;16.022;2023-06-05T03:40:41;16.00;99.90
7814;DHT22;3952;48.364;16.022;2023-06-05T03:43:09;16.00;99.90
7814;DHT22;3952;48.364;16.022;2023-06-05T03:45:37;16.10;99.90
7814;DHT22;3952;48.364;16.022;2023-06-05T03:48:05;16.10;99.90
7814;DHT22;3952;48.364;16.022;2023-06-05T03:50:34;16.20;99.90
7814;DHT22;3952;48.364;16.022;2023-06-05T03:53:03;16.10;99.90
7814;DHT22;3952;48.364;16.022;2023-06-05T03:55:31;16.10;99.90
7814;DHT22;3952;48.364;16.022;2023-06-05T03:58:04;16.10;99.90
7814;DHT22;3952;48.364;16.022;2023-06-05T04:00:33;16.00;99.90
7814;DHT22;3952;48.364;16.022;2023-06-05T04:03:01;16.00;99.90
7814;DHT22;3952;48.364;16.022;2023-06-05T04:05:28;16.00;99.90
7814;DHT22;3952;48.364;16.022;2023-06-05T04:07:56;16.00;99.90
7814;DHT22;3952;48.364;16.022;2023-06-05T04:10:23;16.00;99.90
7814;DHT22;3952;48.364;16.022;2023-06-05T04:12:50;16.00;99.90
7814;DHT22;3952;48.364;16.022;2023-06-05T04:15:19;16.00;99.90
7814;DHT22;3952;48.364;16.022;2023-06-05T04:17:46;16.10;99.90
7814;DHT22;3952;48.364;16.022;2023-06-05T04:20:13;16.00;99.90
7814;DHT22;3952;48.364;16.022;2023-06-05T04:22:41;16.10;99.90
7814;DHT22;3952;48.364;16.022;2023-06-05T04:25:09;16.10;99.90
7814;DHT22;3952;48.364;16.022;2023-06-05T04:27:39;16.10;99.90
7814;DHT22;3952;48.364;16.022;2023-06-05T04:30:07;16.10;99.90
7814;DHT22;3952;48.364;16.022;2023-06-05T04:32:38;16.20;99.90
7814;DHT22;3952;48.364;16.022;2023-06-05T04:35:06;16.20;99.90
7814;DHT22;3952;48.364;16.022;2023-06-05T04:37:34;16.20;99.90
7814;DHT22;3952;48.364;16.022;2023-06-05T04:40:02;16.20;99.90
7814;DHT22;3952;48.364;16.022;2023-06-05T04:42:31;16.20;99.90
7814;DHT22;3952;48.364;16.022;2023-06-05T04:45:00;16.20;99.90
7814;DHT22;3952;48.364;16.022;2023-06-05T04:47:29;16.20;99.90
7814;DHT22;3952;48.364;16.022;2023-06-05T04:50:00;16.20;99.90
7814;DHT22;3952;48.364;16.022;2023-06-05T04:52:29;16.30;99.90
7814;DHT22;3952;48.364;16.022;2023-06-05T04:54:57;16.30;99.90
7814;DHT22;3952;48.364;16.022;2023-06-05T04:57:27;16.40;99.90
7814;DHT22;3952;48.364;16.022;2023-06-05T04:59:55;16.40;99.90
7814;DHT22;3952;48.364;16.022;2023-06-05T05:02:23;16.40;99.90
7814;DHT22;3952;48.364;16.022;2023-06-05T05:04:50;16.30;99.90
7814;DHT22;3952;48.364;16.022;2023-06-05T05:07:19;16.40;99.90
7814;DHT22;3952;48.364;16.022;2023-06-05T05:09:48;16.40;99.90
7814;DHT22;3952;48.364;16.022;2023-06-05T05:12:16;16.40;99.90
7814;DHT22;3952;48.364;16.022;2023-06-05T05:14:43;16.40;99.90
7814;DHT22;3952;48.364;16.022;2023-06-05T05:17:10;16.40;99.90
7814;DHT22;3952;48.364;16.022;2023-06-05T05:19:40;16.50;99.90
7814;DHT22;3952;48.364;16.022;2023-06-05T05:22:07;16.50;99.90
7814;DHT22;3952;48.364;16.022;2023-06-05T05:24:36;16.50;99.90
7814;DHT22;3952;48.364;16.022;2023-06-05T05:27:04;16.50;99.90
7814;DHT22;3952;48.364;16.022;2023-06-05T05:29:31;16.50;99.90
7814;DHT22;3952;48.364;16.022;2023-06-05T05:31:59;16.50;99.90
7814;DHT22;3952;48.364;16.022;2023-06-05T05:34:26;16.50;99.90
7814;DHT22;3952;48.364;16.022;2023-06-05T05:36:54;16.50;99.90
7814;DHT22;3952;48.364;16.022;2023-06-05T05:39:21;16.60;99.90
7814;DHT22;3952;48.364;16.022;2023-06-05T05:41:50;16.60;99.90
7814;DHT22;3952;48.364;16.022;2023-06-05T05:44:17;16.70;99.90
7814;DHT22;3952;48.364;16.022;2023-06-05T05:46:45;16.70;99.90
7814;DHT22;3952;48.364;16.022;2023-06-05T05:49:13;16.80;99.90
7814;DHT22;3952;48.364;16.022;2023-06-05T05:51:40;16.80;99.90
7814;DHT22;3952;48.364;16.022;2023-06-05T05:54:07;16.90;99.90
7814;DHT22;3952;48.364;16.022;2023-06-05T05:56:35;16.90;99.90
7814;DHT22;3952;48.364;16.022;2023-06-05T05:59:04;16.90;99.90
7814;DHT22;3952;48.364;16.022;2023-06-05T06:01:32;16.90;99.90
7814;DHT22;3952;48.364;16.022;2023-06-05T06:03:59;16.90;99.90
7814;DHT22;3952;48.364;16.022;2023-06-05T06:06:26;17.00;99.90
7814;DHT22;3952;48.364;16.022;2023-06-05T06:08:54;17.00;99.90
7814;DHT22;3952;48.364;16.022;2023-06-05T06:11:21;17.00;99.90
7814;DHT22;3952;48.364;16.022;2023-06-05T06:13:49;17.00;99.90
7814;DHT22;3952;48.364;16.022;2023-06-05T06:16:18;17.00;99.90
7814;DHT22;3952;48.364;16.022;2023-06-05T06:18:45;17.10;99.90
7814;DHT22;3952;48.364;16.022;2023-06-05T06:21:12;17.10;99.90
7814;DHT22;3952;48.364;16.022;2023-06-05T06:23:40;17.10;99.90
7814;DHT22;3952;48.364;16.022;2023-06-05T06:26:07;17.20;99.90
7814;DHT22;3952;48.364;16.022;2023-06-05T06:28:34;17.30;99.90
7814;DHT22;3952;48.364;16.022;2023-06-05T06:31:01;17.30;99.90
7814;DHT22;3952;48.364;16.022;2023-06-05T06:33:30;17.30;99.90
7814;DHT22;3952;48.364;16.022;2023-06-05T06:35:58;17.40;99.90
7814;DHT22;3952;48.364;16.022;2023-06-05T06:38:26;17.50;99.90
7814;DHT22;3952;48.364;16.022;2023-06-05T06:40:56;17.40;99.90
7814;DHT22;3952;48.364;16.022;2023-06-05T06:43:23;17.40;99.90
7814;DHT22;3952;48.364;16.022;2023-06-05T06:45:51;17.50;99.90
7814;DHT22;3952;48.364;16.022;2023-06-05T06:48:18;17.50;99.90
7814;DHT22;3952;48.364;16.022;2023-06-05T06:50:47;17.50;99.90
7814;DHT22;3952;48.364;16.022;2023-06-05T06:53:14;17.50;99.90
7814;DHT22;3952;48.364;16.022;2023-06-05T06:55:42;17.60;99.90
7814;DHT22;3952;48.364;16.022;2023-06-05T06:58:09;17.60;99.90
7814;DHT22;3952;48.364;16.022;2023-06-05T07:00:36;17.70;99.90
7814;DHT22;3952;48.364;16.022;2023-06-05T07:03:04;17.70;99.90
7814;DHT22;3952;48.364;16.022;2023-06-05T07:05:31;17.80;99.90
7814;DHT22;3952;48.364;16.022;2023-06-05T07:08:00;17.90;99.90
7814;DHT22;3952;48.364;16.022;2023-06-05T07:10:27;18.00;99.90
7814;DHT22;3952;48.364;16.022;2023-06-05T07:12:55;18.20;99.90
7814;DHT22;3952;48.364;16.022;2023-06-05T07:15:22;18.20;99.90
7814;DHT22;3952;48.364;16.022;2023-06-05T07:17:49;18.30;99.90
7814;DHT22;3952;48.364;16.022;2023-06-05T07:20:17;18.40;99.90
7814;DHT22;3952;48.364;16.022;2023-06-05T07:22:44;18.40;99.90
7814;DHT22;3952;48.364;16.022;2023-06-05T07:25:14;18.40;99.90
7814;DHT22;3952;48.364;16.022;2023-06-05T07:27:43;18.50;99.90
7814;DHT22;3952;48.364;16.022;2023-06-05T07:30:11;18.50;99.90
7814;DHT22;3952;48.364;16.022;2023-06-05T07:32:39;18.50;99.90
7814;DHT22;3952;48.364;16.022;2023-06-05T07:35:09;18.50;99.90
7814;DHT22;3952;48.364;16.022;2023-06-05T07:37:36;18.60;99.90
7814;DHT22;3952;48.364;16.022;2023-06-05T07:40:04;18.60;99.90
7814;DHT22;3952;48.364;16.022;2023-06-05T07:42:33;18.60;99.90
7814;DHT22;3952;48.364;16.022;2023-06-05T07:45:00;18.80;99.90
7814;DHT22;3952;48.364;16.022;2023-06-05T07:47:28;18.80;99.90
7814;DHT22;3952;48.364;16.022;2023-06-05T07:49:58;19.00;99.90
7814;DHT22;3952;48.364;16.022;2023-06-05T07:52:26;19.10;99.90
7814;DHT22;3952;48.364;16.022;2023-06-05T07:54:54;19.20;99.90
7814;DHT22;3952;48.364;16.022;2023-06-05T07:57:21;19.20;99.90
7814;DHT22;3952;48.364;16.022;2023-06-05T07:59:51;19.20;99.90
7814;DHT22;3952;48.364;16.022;2023-06-05T08:02:19;19.30;99.90
7814;DHT22;3952;48.364;16.022;2023-06-05T08:04:47;19.30;99.90
7814;DHT22;3952;48.364;16.022;2023-06-05T08:07:14;19.30;99.90
7814;DHT22;3952;48.364;16.022;2023-06-05T08:09:42;19.20;99.90
7814;DHT22;3952;48.364;16.022;2023-06-05T08:12:09;19.20;99.90
7814;DHT22;3952;48.364;16.022;2023-06-05T08:14:37;19.30;99.90
7814;DHT22;3952;48.364;16.022;2023-06-05T08:17:06;19.50;99.90
7814;DHT22;3952;48.364;16.022;2023-06-05T08:19:33;19.70;99.90
7814;DHT22;3952;48.364;16.022;2023-06-05T08:22:00;19.80;99.90
7814;DHT22;3952;48.364;16.022;2023-06-05T08:24:28;20.10;99.90
7814;DHT22;3952;48.364;16.022;2023-06-05T08:26:56;20.20;99.90
7814;DHT22;3952;48.364;16.022;2023-06-05T08:29:25;20.30;99.90
7814;DHT22;3952;48.364;16.022;2023-06-05T08:31:53;20.30;99.90
7814;DHT22;3952;48.364;16.022;2023-06-05T08:34:22;20.30;99.90
7814;DHT22;3952;48.364;16.022;2023-06-05T08:36:51;20.20;99.90
7814;DHT22;3952;48.364;16.022;2023-06-05T08:39:18;20.10;99.90
7814;DHT22;3952;48.364;16.022;2023-06-05T08:41:50;20.00;99.90
7814;DHT22;3952;48.364;16.022;2023-06-05T08:44:18;19.90;99.90
7814;DHT22;3952;48.364;16.022;2023-06-05T08:46:46;19.90;99.90
7814;DHT22;3952;48.364;16.022;2023-06-05T08:49:17;19.80;99.90
7814;DHT22;3952;48.364;16.022;2023-06-05T08:51:51;19.80;99.90
7814;DHT22;3952;48.364;16.022;2023-06-05T08:54:20;19.80;99.90
7814;DHT22;3952;48.364;16.022;2023-06-05T08:56:48;19.80;99.90
7814;DHT22;3952;48.364;16.022;2023-06-05T08:59:17;19.90;99.90
7814;DHT22;3952;48.364;16.022;2023-06-05T09:01:47;20.00;99.90
7814;DHT22;3952;48.364;16.022;2023-06-05T09:04:14;20.00;99.90
7814;DHT22;3952;48.364;16.022;2023-06-05T09:06:45;20.10;99.90
7814;DHT22;3952;48.364;16.022;2023-06-05T09:09:15;20.10;99.90
7814;DHT22;3952;48.364;16.022;2023-06-05T09:11:43;20.00;99.90
7814;DHT22;3952;48.364;16.022;2023-06-05T09:14:10;20.00;99.90
7814;DHT22;3952;48.364;16.022;2023-06-05T09:16:40;20.00;99.90
7814;DHT22;3952;48.364;16.022;2023-06-05T09:19:08;20.00;99.90
7814;DHT22;3952;48.364;16.022;2023-06-05T09:21:36;20.00;99.90
7814;DHT22;3952;48.364;16.022;2023-06-05T09:24:23;20.00;99.90
7814;DHT22;3952;48.364;16.022;2023-06-05T09:26:53;20.00;99.90
7814;DHT22;3952;48.364;16.022;2023-06-05T09:29:22;20.10;99.90
7814;DHT22;3952;48.364;16.022;2023-06-05T09:31:51;20.20;99.90
7814;DHT22;3952;48.364;16.022;2023-06-05T09:34:25;20.30;99.90
7814;DHT22;3952;48.364;16.022;2023-06-05T09:36:54;20.40;99.90
7814;DHT22;3952;48.364;16.022;2023-06-05T09:39:25;20.60;99.90
7814;DHT22;3952;48.364;16.022;2023-06-05T09:41:53;20.70;99.90
7814;DHT22;3952;48.364;16.022;2023-06-05T09:44:20;20.80;99.90
7814;DHT22;3952;48.364;16.022;2023-06-05T09:46:52;20.80;99.90
7814;DHT22;3952;48.364;16.022;2023-06-05T09:49:20;20.80;99.90
7814;DHT22;3952;48.364;16.022;2023-06-05T09:51:48;20.80;99.90
7814;DHT22;3952;48.364;16.022;2023-06-05T09:54:16;20.70;99.90
7814;DHT22;3952;48.364;16.022;2023-06-05T09:56:48;20.70;99.90
7814;DHT22;3952;48.364;16.022;2023-06-05T09:59:19;20.80;99.90
7814;DHT22;3952;48.364;16.022;2023-06-05T10:01:51;20.90;99.90
7814;DHT22;3952;48.364;16.022;2023-06-05T10:04:22;21.10;99.90
7814;DHT22;3952;48.364;16.022;2023-06-05T10:06:51;21.20;99.90
7814;DHT22;3952;48.364;16.022;2023-06-05T10:09:18;21.30;99.90
7814;DHT22;3952;48.364;16.022;2023-06-05T10:11:50;21.40;99.90
7814;DHT22;3952;48.364;16.022;2023-06-05T10:14:18;21.40;99.90
7814;DHT22;3952;48.364;16.022;2023-06-05T10:16:49;21.40;99.90
7814;DHT22;3952;48.364;16.022;2023-06-05T10:19:19;21.40;99.90
7814;DHT22;3952;48.364;16.022;2023-06-05T10:21:47;21.50;99.90
7814;DHT22;3952;48.364;16.022;2023-06-05T10:24:19;21.50;99.90
7814;DHT22;3952;48.364;16.022;2023-06-05T10:27:24;21.50;99.90
7814;DHT22;3952;48.364;16.022;2023-06-05T10:30:19;21.50;99.90
7814;DHT22;3952;48.364;16.022;2023-06-05T10:32:58;21.60;99.90
7814;DHT22;3952;48.364;16.022;2023-06-05T10:35:36;21.70;99.90
7814;DHT22;3952;48.364;16.022;2023-06-05T10:38:16;21.70;99.90
7814;DHT22;3952;48.364;16.022;2023-06-05T10:40:46;21.70;99.90
7814;DHT22;3952;48.364;16.022;2023-06-05T10:43:31;21.70;99.90
7814;DHT22;3952;48.364;16.022;2023-06-05T10:46:00;21.80;99.90
7814;DHT22;3952;48.364;16.022;2023-06-05T10:51:34;21.90;99.90
7814;DHT22;3952;48.364;16.022;2023-06-05T10:54:04;21.70;99.90
7814;DHT22;3952;48.364;16.022;2023-06-05T10:56:54;21.60;99.90
7814;DHT22;3952;48.364;16.022;2023-06-05T10:59:24;21.70;99.90
7814;DHT22;3952;48.364;16.022;2023-06-05T11:02:23;21.80;99.90
7814;DHT22;3952;48.364;16.022;2023-06-05T11:05:07;21.80;99.90
7814;DHT22;3952;48.364;16.022;2023-06-05T11:07:37;21.90;99.90
7814;DHT22;3952;48.364;16.022;2023-06-05T11:10:11;21.90;99.90
7814;DHT22;3952;48.364;16.022;2023-06-05T11:12:58;21.80;99.90
7814;DHT22;3952;48.364;16.022;2023-06-05T11:15:44;21.70;99.90
7814;DHT22;3952;48.364;16.022;2023-06-05T11:18:27;21.70;99.90
7814;DHT22;3952;48.364;16.022;2023-06-05T11:20:55;21.40;99.90
7814;DHT22;3952;48.364;16.022;2023-06-05T11:23:23;21.30;99.90
7814;DHT22;3952;48.364;16.022;2023-06-05T11:25:54;21.20;99.90
7814;DHT22;3952;48.364;16.022;2023-06-05T11:28:40;21.20;99.90
7814;DHT22;3952;48.364;16.022;2023-06-05T11:31:09;21.10;99.90
7814;DHT22;3952;48.364;16.022;2023-06-05T11:33:37;21.10;99.90
7814;DHT22;3952;48.364;16.022;2023-06-05T11:36:06;21.10;99.90
7814;DHT22;3952;48.364;16.022;2023-06-05T11:38:34;21.10;99.90
7814;DHT22;3952;48.364;16.022;2023-06-05T11:41:06;21.10;99.90
7814;DHT22;3952;48.364;16.022;2023-06-05T11:43:42;21.20;99.90
7814;DHT22;3952;48.364;16.022;2023-06-05T11:46:11;21.30;99.90
7814;DHT22;3952;48.364;16.022;2023-06-05T11:48:44;21.40;99.90
7814;DHT22;3952;48.364;16.022;2023-06-05T11:51:12;21.40;99.90
7814;DHT22;3952;48.364;16.022;2023-06-05T11:53:45;21.40;99.90
7814;DHT22;3952;48.364;16.022;2023-06-05T11:56:15;21.40;99.90
7814;DHT22;3952;48.364;16.022;2023-06-05T11:58:43;21.40;99.90
7814;DHT22;3952;48.364;16.022;2023-06-05T12:01:14;21.30;99.90
7814;DHT22;3952;48.364;16.022;2023-06-05T12:03:49;21.30;99.90
7814;DHT22;3952;48.364;16.022;2023-06-05T12:06:17;21.30;99.90
7814;DHT22;3952;48.364;16.022;2023-06-05T12:08:44;21.30;99.90
7814;DHT22;3952;48.364;16.022;2023-06-05T12:11:23;21.20;99.90
7814;DHT22;3952;48.364;16.022;2023-06-05T12:13:52;21.30;99.90
7814;DHT22;3952;48.364;16.022;2023-06-05T12:16:29;21.40;99.90
7814;DHT22;3952;48.364;16.022;2023-06-05T12:18:57;21.40;99.90
7814;DHT22;3952;48.364;16.022;2023-06-05T12:21:26;21.40;99.90
7814;DHT22;3952;48.364;16.022;2023-06-05T12:24:01;21.40;99.90
7814;DHT22;3952;48.364;16.022;2023-06-05T12:26:29;21.60;99.90
7814;DHT22;3952;48.364;16.022;2023-06-05T12:29:03;21.60;99.90
7814;DHT22;3952;48.364;16.022;2023-06-05T12:31:36;21.60;99.90
7814;DHT22;3952;48.364;16.022;2023-06-05T12:34:05;21.60;99.90
7814;DHT22;3952;48.364;16.022;2023-06-05T12:36:38;21.60;99.90
7814;DHT22;3952;48.364;16.022;2023-06-05T12:39:06;21.50;99.90
7814;DHT22;3952;48.364;16.022;2023-06-05T12:41:34;21.50;99.90
7814;DHT22;3952;48.364;16.022;2023-06-05T12:44:02;21.60;99.90
7814;DHT22;3952;48.364;16.022;2023-06-05T12:46:30;21.60;99.90
7814;DHT22;3952;48.364;16.022;2023-06-05T12:49:00;21.60;99.90
7814;DHT22;3952;48.364;16.022;2023-06-05T12:51:27;21.60;99.90
7814;DHT22;3952;48.364;16.022;2023-06-05T12:53:56;21.60;99.90
7814;DHT22;3952;48.364;16.022;2023-06-05T12:56:23;21.60;99.90
7814;DHT22;3952;48.364;16.022;2023-06-05T12:58:54;21.70;99.90
7814;DHT22;3952;48.364;16.022;2023-06-05T13:01:22;21.70;99.90
7814;DHT22;3952;48.364;16.022;2023-06-05T13:03:49;21.70;99.90
7814;DHT22;3952;48.364;16.022;2023-06-05T13:06:18;21.60;99.90
7814;DHT22;3952;48.364;16.022;2023-06-05T13:08:46;21.50;99.90
7814;DHT22;3952;48.364;16.022;2023-06-05T13:11:14;21.50;99.90
7814;DHT22;3952;48.364;16.022;2023-06-05T13:13:41;21.50;99.90
7814;DHT22;3952;48.364;16.022;2023-06-05T13:16:10;21.50;99.90
7814;DHT22;3952;48.364;16.022;2023-06-05T13:18:37;21.40;99.90
7814;DHT22;3952;48.364;16.022;2023-06-05T13:21:05;21.50;99.90
7814;DHT22;3952;48.364;16.022;2023-06-05T13:23:34;21.50;99.90
7814;DHT22;3952;48.364;16.022;2023-06-05T13:26:01;21.50;99.90
7814;DHT22;3952;48.364;16.022;2023-06-05T13:28:29;21.50;99.90
7814;DHT22;3952;48.364;16.022;2023-06-05T13:30:57;21.50;99.90
7814;DHT22;3952;48.364;16.022;2023-06-05T13:33:24;21.40;99.90
7814;DHT22;3952;48.364;16.022;2023-06-05T13:35:52;21.40;99.90
7814;DHT22;3952;48.364;16.022;2023-06-05T13:38:20;21.50;99.90
7814;DHT22;3952;48.364;16.022;2023-06-05T13:40:49;21.50;99.90
7814;DHT22;3952;48.364;16.022;2023-06-05T13:43:18;21.40;99.90
7814;DHT22;3952;48.364;16.022;2023-06-05T13:45:45;21.40;99.90
7814;DHT22;3952;48.364;16.022;2023-06-05T13:48:12;21.40;99.90
7814;DHT22;3952;48.364;16.022;2023-06-05T13:50:40;21.30;99.90
7814;DHT22;3952;48.364;16.022;2023-06-05T13:53:07;21.40;99.90
7814;DHT22;3952;48.364;16.022;2023-06-05T13:55:34;21.40;99.90
7814;DHT22;3952;48.364;16.022;2023-06-05T13:58:03;21.50;99.90
7814;DHT22;3952;48.364;16.022;2023-06-05T14:00:31;21.50;99.90
7814;DHT22;3952;48.364;16.022;2023-06-05T14:02:59;21.40;99.90
7814;DHT22;3952;48.364;16.022;2023-06-05T14:05:26;21.40;99.90
7814;DHT22;3952;48.364;16.022;2023-06-05T14:07:55;21.40;99.90
7814;DHT22;3952;48.364;16.022;2023-06-05T14:10:24;21.40;99.90
7814;DHT22;3952;48.364;16.022;2023-06-05T14:12:52;21.40;99.90
7814;DHT22;3952;48.364;16.022;2023-06-05T14:15:21;21.40;99.90
7814;DHT22;3952;48.364;16.022;2023-06-05T14:17:50;21.30;99.90
7814;DHT22;3952;48.364;16.022;2023-06-05T14:20:19;21.30;99.90
7814;DHT22;3952;48.364;16.022;2023-06-05T14:22:46;21.30;99.90
7814;DHT22;3952;48.364;16.022;2023-06-05T14:25:13;21.30;99.90
7814;DHT22;3952;48.364;16.022;2023-06-05T14:27:41;21.30;99.90
7814;DHT22;3952;48.364;16.022;2023-06-05T14:30:09;21.30;99.90
7814;DHT22;3952;48.364;16.022;2023-06-05T14:32:38;21.30;99.90
7814;DHT22;3952;48.364;16.022;2023-06-05T14:35:05;21.30;99.90
7814;DHT22;3952;48.364;16.022;2023-06-05T14:37:33;21.20;99.90
7814;DHT22;3952;48.364;16.022;2023-06-05T14:40:00;21.10;99.90
7814;DHT22;3952;48.364;16.022;2023-06-05T14:42:28;21.00;99.90
7814;DHT22;3952;48.364;16.022;2023-06-05T14:44:55;20.90;99.90
7814;DHT22;3952;48.364;16.022;2023-06-05T14:47:22;20.90;99.90
7814;DHT22;3952;48.364;16.022;2023-06-05T14:49:51;20.80;99.90
7814;DHT22;3952;48.364;16.022;2023-06-05T14:52:18;20.70;99.90
7814;DHT22;3952;48.364;16.022;2023-06-05T14:54:46;20.80;99.90
7814;DHT22;3952;48.364;16.022;2023-06-05T14:57:13;20.80;99.90
7814;DHT22;3952;48.364;16.022;2023-06-05T14:59:40;20.70;99.90
7814;DHT22;3952;48.364;16.022;2023-06-05T15:02:07;20.60;99.90
7814;DHT22;3952;48.364;16.022;2023-06-05T15:04:35;20.50;99.90
7814;DHT22;3952;48.364;16.022;2023-06-05T15:07:04;20.30;99.90
7814;DHT22;3952;48.364;16.022;2023-06-05T15:09:31;20.10;99.90
7814;DHT22;3952;48.364;16.022;2023-06-05T15:11:58;19.90;99.90
7814;DHT22;3952;48.364;16.022;2023-06-05T15:14:26;19.80;99.90
7814;DHT22;3952;48.364;16.022;2023-06-05T15:16:53;19.70;99.90
7814;DHT22;3952;48.364;16.022;2023-06-05T15:19:20;19.50;99.90
7814;DHT22;3952;48.364;16.022;2023-06-05T15:21:47;19.40;99.90
7814;DHT22;3952;48.364;16.022;2023-06-05T15:24:16;19.30;99.90
7814;DHT22;3952;48.364;16.022;2023-06-05T15:26:43;19.30;99.90
7814;DHT22;3952;48.364;16.022;2023-06-05T15:29:11;19.30;99.90
7814;DHT22;3952;48.364;16.022;2023-06-05T15:31:38;19.30;99.90
7814;DHT22;3952;48.364;16.022;2023-06-05T15:34:05;19.20;99.90
7814;DHT22;3952;48.364;16.022;2023-06-05T15:36:32;19.10;99.90
7814;DHT22;3952;48.364;16.022;2023-06-05T15:39:00;19.10;99.90
7814;DHT22;3952;48.364;16.022;2023-06-05T15:41:29;19.00;99.90
7814;DHT22;3952;48.364;16.022;2023-06-05T15:43:57;19.00;99.90
7814;DHT22;3952;48.364;16.022;2023-06-05T15:46:24;19.00;99.90
7814;DHT22;3952;48.364;16.022;2023-06-05T15:48:51;18.90;99.90
7814;DHT22;3952;48.364;16.022;2023-06-05T15:51:18;18.80;99.90
7814;DHT22;3952;48.364;16.022;2023-06-05T15:53:46;18.70;99.90
7814;DHT22;3952;48.364;16.022;2023-06-05T15:56:13;18.60;99.90
7814;DHT22;3952;48.364;16.022;2023-06-05T15:58:43;18.50;99.90
7814;DHT22;3952;48.364;16.022;2023-06-05T16:01:10;18.50;99.90